createdAt,value
2019-02-23T00:00:27.007Z,1.00
2019-02-23T00:03:01.023Z,1.00
2019-02-23T00:05:33.632Z,0.00
2019-02-23T00:08:06.392Z,1.00
2019-02-23T00:10:38.866Z,1.40
2019-02-23T00:13:12.392Z,0.00
2019-02-23T00:15:45.088Z,1.00
2019-02-23T00:18:17.488Z,1.00
2019-02-23T00:20:49.859Z,1.00
2019-02-23T00:23:22.344Z,0.20
2019-02-23T00:25:54.697Z,0.00
2019-02-23T00:28:27.574Z,1.00
2019-02-23T00:31:00.290Z,0.00
2019-02-23T00:33:33.125Z,1.00
2019-02-23T00:36:06.812Z,0.00
2019-02-23T00:38:39.495Z,1.00
2019-02-23T00:41:11.934Z,1.00
2019-02-23T00:43:44.338Z,1.60
2019-02-23T00:46:17.026Z,1.00
2019-02-23T00:48:49.740Z,0.00
2019-02-23T00:51:22.624Z,0.00
2019-02-23T00:53:55.149Z,1.00
2019-02-23T00:56:27.495Z,1.00
2019-02-23T00:59:00.322Z,0.40
2019-02-23T01:01:33.000Z,0.00
2019-02-23T01:04:05.927Z,0.00
2019-02-23T01:06:38.537Z,0.00
2019-02-23T01:09:11.193Z,0.00
2019-02-23T01:11:44.046Z,0.00
2019-02-23T01:14:16.418Z,1.00
2019-02-23T01:16:48.907Z,0.00
2019-02-23T01:19:22.495Z,0.00
2019-02-23T01:21:55.192Z,0.00
2019-02-23T01:24:27.646Z,0.00
2019-02-23T01:27:00.509Z,0.00
2019-02-23T01:29:33.303Z,0.20
2019-02-23T01:32:05.981Z,0.00
2019-02-23T01:34:38.579Z,0.00
2019-02-23T01:37:11.248Z,0.00
2019-02-23T01:39:43.803Z,0.20
2019-02-23T01:42:16.298Z,0.00
2019-02-23T01:44:48.761Z,0.00
2019-02-23T01:47:22.570Z,0.00
2019-02-23T01:49:58.727Z,0.00
2019-02-23T01:52:29.359Z,1.00
2019-02-23T01:55:01.765Z,0.00
2019-02-23T01:57:34.314Z,0.00
2019-02-23T02:00:09.402Z,1.00
2019-02-23T02:02:42.565Z,0.00
2019-02-23T02:05:15.804Z,0.00
2019-02-23T02:07:48.285Z,0.00
2019-02-23T02:10:20.841Z,0.00
2019-02-23T02:12:53.202Z,0.00
2019-02-23T02:15:25.828Z,0.00
2019-02-23T02:17:58.284Z,0.00
2019-02-23T02:20:30.816Z,0.00
2019-02-23T02:23:03.225Z,0.00
2019-02-23T02:25:35.702Z,0.00
2019-02-23T02:28:08.430Z,0.00
2019-02-23T02:30:41.366Z,0.00
2019-02-23T02:33:13.990Z,0.00
2019-02-23T02:35:46.593Z,0.00
2019-02-23T02:38:19.330Z,0.00
2019-02-23T02:40:51.962Z,0.00
2019-02-23T02:43:24.319Z,0.00
2019-02-23T02:45:56.714Z,0.00
2019-02-23T02:48:29.441Z,0.00
2019-02-23T02:51:02.842Z,0.00
2019-02-23T02:53:35.235Z,0.00
2019-02-23T02:56:07.854Z,0.00
2019-02-23T02:58:40.230Z,0.00
2019-02-23T03:01:12.656Z,0.00
2019-02-23T03:03:45.652Z,0.00
2019-02-23T03:06:18.408Z,0.00
2019-02-23T03:08:50.772Z,0.00
2019-02-23T03:11:24.681Z,0.00
2019-02-23T03:13:58.150Z,0.00
2019-02-23T03:16:35.078Z,0.00
2019-02-23T03:19:08.111Z,0.00
2019-02-23T03:21:40.762Z,0.00
2019-02-23T03:24:14.138Z,0.00
2019-02-23T03:26:47.852Z,0.80
2019-02-23T03:29:20.370Z,1.00
2019-02-23T03:31:53.152Z,1.00
2019-02-23T03:34:25.797Z,1.00
2019-02-23T03:36:58.192Z,1.00
2019-02-23T03:39:30.550Z,0.60
2019-02-23T03:42:03.299Z,2.00
2019-02-23T03:44:35.672Z,4.80
2019-02-23T03:47:08.084Z,12.60
2019-02-23T03:49:40.672Z,21.20
2019-02-23T03:52:13.336Z,24.20
2019-02-23T03:54:45.572Z,29.20
2019-02-23T03:57:17.784Z,36.80
2019-02-23T03:59:50.128Z,41.00
2019-02-23T04:02:22.376Z,45.00
2019-02-23T04:04:54.571Z,41.40
2019-02-23T04:07:26.999Z,44.80
2019-02-23T04:09:59.473Z,42.80
2019-02-23T04:12:32.099Z,45.00
2019-02-23T04:15:04.351Z,41.40
2019-02-23T04:17:36.887Z,41.00
2019-02-23T04:20:09.926Z,44.00
2019-02-23T04:22:42.140Z,45.75
2019-02-23T04:25:14.682Z,45.75
2019-02-23T04:27:46.883Z,47.75
2019-02-23T04:30:19.055Z,48.50
2019-02-23T04:32:51.868Z,52.00
2019-02-23T04:35:24.083Z,79.50
2019-02-23T04:37:56.279Z,85.25
2019-02-23T04:40:28.475Z,238.25
2019-02-23T04:43:01.003Z,341.60
2019-02-23T04:45:34.577Z,414.50
2019-02-23T04:48:06.898Z,432.00
2019-02-23T04:50:39.083Z,443.20
2019-02-23T04:53:11.538Z,438.60
2019-02-23T04:55:43.754Z,404.00
2019-02-23T04:58:16.377Z,412.00
2019-02-23T05:00:48.929Z,409.20
2019-02-23T05:03:21.142Z,352.50
2019-02-23T05:05:53.445Z,316.20
2019-02-23T05:08:26.032Z,286.75
2019-02-23T05:10:58.576Z,263.25
2019-02-23T05:13:31.012Z,242.25
2019-02-23T05:16:03.227Z,228.75
2019-02-23T05:18:35.488Z,246.00
2019-02-23T05:21:07.716Z,240.75
2019-02-23T05:23:40.051Z,248.50
2019-02-23T05:26:12.257Z,250.25
2019-02-23T05:28:44.481Z,245.75
2019-02-23T05:31:16.684Z,245.00
2019-02-23T05:33:50.890Z,244.50
2019-02-23T05:36:23.183Z,221.50
2019-02-23T05:38:56.510Z,228.25
2019-02-23T05:41:28.703Z,222.50
2019-02-23T05:44:01.249Z,233.50
2019-02-23T05:46:33.454Z,225.75
2019-02-23T05:49:05.783Z,235.00
2019-02-23T05:51:39.195Z,224.50
2019-02-23T05:54:11.602Z,219.25
2019-02-23T05:56:44.264Z,218.00
2019-02-23T05:59:16.505Z,219.50
2019-02-23T06:01:48.773Z,225.00
2019-02-23T06:04:21.327Z,212.25
2019-02-23T06:06:53.525Z,207.50
2019-02-23T06:09:26.078Z,206.25
2019-02-23T06:11:58.460Z,209.00
2019-02-23T06:14:30.707Z,203.75
2019-02-23T06:17:04.089Z,194.50
2019-02-23T06:19:36.626Z,193.50
2019-02-23T06:22:08.821Z,196.25
2019-02-23T06:24:41.539Z,170.25
2019-02-23T06:27:13.737Z,179.75
2019-02-23T06:29:45.974Z,176.25
2019-02-23T06:32:18.165Z,177.50
2019-02-23T06:34:50.763Z,170.75
2019-02-23T06:37:23.056Z,171.25
2019-02-23T06:39:55.291Z,170.00
2019-02-23T06:42:27.494Z,164.00
2019-02-23T06:44:59.816Z,153.50
2019-02-23T06:47:32.120Z,158.00
2019-02-23T06:50:04.337Z,155.25
2019-02-23T06:52:36.527Z,151.50
2019-02-23T06:55:09.239Z,139.00
2019-02-23T06:57:41.414Z,140.50
2019-02-23T07:00:16.338Z,139.25
2019-02-23T07:02:48.537Z,130.50
2019-02-23T07:05:21.152Z,133.75
2019-02-23T07:07:53.354Z,134.25
2019-02-23T07:10:25.773Z,122.00
2019-02-23T07:12:58.438Z,121.25
2019-02-23T07:15:30.662Z,115.25
2019-02-23T07:18:02.865Z,118.00
2019-02-23T07:20:43.874Z,119.50
2019-02-23T07:23:08.907Z,112.50
2019-02-23T07:25:41.123Z,118.00
2019-02-23T07:28:13.290Z,110.25
2019-02-23T07:30:45.596Z,103.75
2019-02-23T07:33:29.558Z,111.25
2019-02-23T07:35:52.117Z,102.50
2019-02-23T07:38:24.582Z,107.25
2019-02-23T07:40:56.791Z,96.25
2019-02-23T07:43:28.965Z,97.50
2019-02-23T07:46:01.167Z,94.50
2019-02-23T07:48:33.575Z,89.00
2019-02-23T07:51:05.808Z,91.75
2019-02-23T07:53:38.089Z,94.25
2019-02-23T07:56:10.408Z,87.00
2019-02-23T07:58:42.678Z,78.00
2019-02-23T08:01:15.279Z,81.25
2019-02-23T08:03:47.547Z,82.50
2019-02-23T08:06:19.942Z,81.50
2019-02-23T08:08:52.138Z,84.25
2019-02-23T08:11:24.780Z,80.25
2019-02-23T08:13:56.984Z,72.00
2019-02-23T08:16:29.293Z,82.25
2019-02-23T08:19:01.457Z,70.75
2019-02-23T08:21:33.709Z,77.00
2019-02-23T08:24:05.964Z,76.50
2019-02-23T08:26:39.272Z,72.00
2019-02-23T08:29:11.435Z,76.25
2019-02-23T08:31:43.661Z,68.00
2019-02-23T08:34:16.300Z,71.75
2019-02-23T08:36:49.045Z,71.75
2019-02-23T08:39:21.235Z,68.50
2019-02-23T08:41:53.472Z,65.00
2019-02-23T08:44:25.749Z,61.00
2019-02-23T08:46:57.971Z,64.25
2019-02-23T08:49:30.172Z,67.00
2019-02-23T08:52:02.393Z,56.25
2019-02-23T08:54:34.678Z,58.75
2019-02-23T08:57:06.884Z,58.75
2019-02-23T08:59:39.496Z,59.75
2019-02-23T09:02:11.692Z,58.00
2019-02-23T09:04:44.899Z,58.25
2019-02-23T09:07:17.254Z,57.75
2019-02-23T09:09:49.509Z,51.25
2019-02-23T09:12:22.732Z,50.50
2019-02-23T09:14:54.919Z,55.25
2019-02-23T09:17:27.123Z,52.50
2019-02-23T09:19:59.334Z,54.75
2019-02-23T09:22:31.631Z,55.00
2019-02-23T09:25:04.223Z,50.00
2019-02-23T09:27:36.599Z,52.25
2019-02-23T09:30:13.501Z,52.25
2019-02-23T09:32:45.702Z,48.50
2019-02-23T09:35:18.455Z,51.50
2019-02-23T09:37:51.098Z,48.00
2019-02-23T09:40:23.282Z,48.50
2019-02-23T09:42:55.679Z,48.25
2019-02-23T09:45:27.857Z,47.75
2019-02-23T09:48:00.333Z,46.50
2019-02-23T09:50:32.612Z,47.25
2019-02-23T09:53:11.183Z,45.75
2019-02-23T09:55:38.927Z,45.75
2019-02-23T09:58:11.124Z,45.50
2019-02-23T10:00:43.436Z,46.50
2019-02-23T10:03:15.646Z,46.25
2019-02-23T10:05:47.893Z,45.75
2019-02-23T10:08:20.288Z,42.75
2019-02-23T10:10:52.466Z,43.00
2019-02-23T10:13:25.315Z,44.50
2019-02-23T10:15:57.598Z,41.75
2019-02-23T10:18:29.823Z,42.50
2019-02-23T10:21:01.998Z,44.25
2019-02-23T10:23:34.279Z,41.50
2019-02-23T10:26:06.549Z,42.75
2019-02-23T10:28:38.749Z,39.75
2019-02-23T10:31:11.326Z,39.25
2019-02-23T10:33:47.521Z,38.50
2019-02-23T10:36:17.295Z,39.75
2019-02-23T10:38:49.866Z,39.25
2019-02-23T10:41:22.059Z,39.50
2019-02-23T10:43:54.253Z,37.75
2019-02-23T10:46:27.430Z,36.25
2019-02-23T10:49:00.035Z,38.75
2019-02-23T10:51:32.245Z,35.75
2019-02-23T10:54:04.549Z,35.75
2019-02-23T10:56:36.874Z,37.50
2019-02-23T10:59:09.195Z,37.00
2019-02-23T11:01:41.562Z,32.75
2019-02-23T11:04:13.763Z,35.75
2019-02-23T11:06:45.968Z,33.00
2019-02-23T11:09:19.978Z,32.00
2019-02-23T11:11:52.449Z,33.50
2019-02-23T11:14:24.654Z,31.00
2019-02-23T11:16:56.924Z,30.25
2019-02-23T11:19:29.421Z,30.75
2019-02-23T11:22:01.906Z,27.75
2019-02-23T11:24:34.221Z,29.25
2019-02-23T11:27:06.524Z,29.50
2019-02-23T11:29:38.731Z,27.75
2019-02-23T11:32:11.109Z,28.50
2019-02-23T11:34:43.437Z,29.00
2019-02-23T11:37:15.707Z,28.75
2019-02-23T11:39:48.748Z,27.00
2019-02-23T11:42:20.921Z,28.00
2019-02-23T11:44:53.141Z,28.00
2019-02-23T11:47:25.308Z,22.00
2019-02-23T11:49:57.572Z,26.75
2019-02-23T11:52:29.867Z,24.50
2019-02-23T11:55:02.420Z,25.00
2019-02-23T11:57:34.592Z,25.50
2019-02-23T12:00:11.838Z,23.00
2019-02-23T12:02:52.103Z,23.25
2019-02-23T12:05:18.014Z,23.75
2019-02-23T12:07:50.626Z,22.50
2019-02-23T12:10:23.068Z,23.00
2019-02-23T12:12:55.547Z,23.25
2019-02-23T12:15:27.860Z,22.00
2019-02-23T12:18:00.036Z,19.75
2019-02-23T12:20:32.206Z,19.50
2019-02-23T12:23:04.375Z,18.50
2019-02-23T12:25:37.573Z,21.00
2019-02-23T12:28:09.748Z,16.25
2019-02-23T12:30:42.036Z,19.75
2019-02-23T12:33:14.210Z,18.00
2019-02-23T12:35:46.415Z,21.00
2019-02-23T12:38:18.609Z,17.75
2019-02-23T12:40:51.298Z,16.75
2019-02-23T12:43:23.561Z,17.25
2019-02-23T12:45:56.069Z,17.00
2019-02-23T12:48:28.251Z,15.50
2019-02-23T12:51:00.553Z,15.75
2019-02-23T12:53:32.716Z,17.75
2019-02-23T12:56:04.895Z,15.75
2019-02-23T12:58:37.608Z,15.75
2019-02-23T13:01:10.038Z,12.75
2019-02-23T13:03:42.521Z,17.00
2019-02-23T13:06:14.737Z,13.25
2019-02-23T13:09:14.678Z,13.50
2019-02-23T13:11:50.105Z,12.00
2019-02-23T13:14:39.702Z,15.25
2019-02-23T13:17:32.559Z,15.00
2019-02-23T13:20:35.486Z,13.25
2019-02-23T13:23:26.380Z,11.75
2019-02-23T13:26:03.867Z,11.25
2019-02-23T13:28:44.621Z,15.00
2019-02-23T13:31:31.319Z,13.00
2019-02-23T13:34:28.165Z,11.25
2019-02-23T13:37:05.902Z,13.00
2019-02-23T13:39:46.505Z,11.50
2019-02-23T13:42:40.521Z,8.75
2019-02-23T13:45:31.158Z,10.25
2019-02-23T13:48:38.816Z,10.25
2019-02-23T13:51:38.970Z,9.25
2019-02-23T13:54:43.809Z,8.00
2019-02-23T13:57:33.348Z,6.75
2019-02-23T14:00:23.214Z,6.80
2019-02-23T14:03:03.650Z,5.00
2019-02-23T14:05:47.600Z,6.60
2019-02-23T14:08:40.358Z,5.00
2019-02-23T14:11:17.850Z,2.40
2019-02-23T14:13:58.991Z,1.60
2019-02-23T14:16:36.430Z,3.40
2019-02-23T14:19:35.147Z,3.40
2019-02-23T14:22:37.143Z,4.00
2019-02-23T14:25:33.178Z,3.80
2019-02-23T14:28:42.550Z,2.00
2019-02-23T14:31:38.534Z,1.80
2019-02-23T14:34:32.491Z,3.00
2019-02-23T14:37:13.423Z,2.00
2019-02-23T14:39:57.720Z,2.40
2019-02-23T14:42:35.636Z,1.60
2019-02-23T14:45:26.782Z,2.00
2019-02-23T14:48:30.522Z,1.00
2019-02-23T14:51:24.860Z,3.00
2019-02-23T14:54:14.967Z,2.00
2019-02-23T14:56:55.847Z,1.40
2019-02-23T14:59:36.892Z,2.00
2019-02-23T15:02:31.041Z,1.00
2019-02-23T15:05:11.649Z,1.00
2019-02-23T15:07:49.375Z,0.00
2019-02-23T15:10:47.890Z,1.00
2019-02-23T15:13:42.030Z,1.00
2019-02-23T15:16:45.205Z,0.40
2019-02-23T15:19:36.025Z,1.00
2019-02-23T15:22:28.948Z,0.60
2019-02-23T15:25:31.018Z,1.60
2019-02-23T15:28:37.674Z,1.00
2019-02-23T15:31:18.862Z,0.40
2019-02-23T15:34:02.738Z,1.00
2019-02-23T15:37:01.600Z,0.40
2019-02-23T15:39:48.668Z,1.00
2019-02-23T15:42:41.580Z,0.00
2019-02-23T15:45:22.359Z,0.00
2019-02-23T15:48:17.069Z,0.00
2019-02-23T15:50:49.961Z,1.00
2019-02-23T15:53:22.368Z,0.00
2019-02-23T15:55:54.945Z,0.20
2019-02-23T15:58:27.403Z,0.00
2019-02-23T16:00:59.897Z,0.00
2019-02-23T16:03:32.592Z,0.00
2019-02-23T16:06:05.141Z,0.00
2019-02-23T16:08:37.565Z,0.00
2019-02-23T16:11:10.056Z,0.00
2019-02-23T16:13:42.636Z,0.00
2019-02-23T16:16:15.228Z,0.00
2019-02-23T16:18:47.877Z,0.00
2019-02-23T16:21:20.329Z,0.00
2019-02-23T16:23:52.842Z,0.00
2019-02-23T16:26:25.334Z,0.00
2019-02-23T16:28:57.902Z,0.00
2019-02-23T16:31:30.786Z,0.00
2019-02-23T16:34:03.543Z,0.00
2019-02-23T16:36:35.966Z,0.00
2019-02-23T16:39:11.197Z,0.00
2019-02-23T16:41:45.365Z,0.00
2019-02-23T16:44:17.706Z,0.80
2019-02-23T16:46:50.109Z,0.00
2019-02-23T16:49:23.366Z,0.00
2019-02-23T16:51:56.007Z,0.00
2019-02-23T16:54:28.424Z,0.00
2019-02-23T16:57:01.484Z,0.00
2019-02-23T16:59:33.942Z,0.00
2019-02-23T17:02:06.448Z,0.00
2019-02-23T17:04:38.925Z,0.00
2019-02-23T17:07:11.696Z,0.00
2019-02-23T17:09:44.253Z,0.00
2019-02-23T17:12:16.964Z,0.00
2019-02-23T17:14:49.903Z,0.00
2019-02-23T17:17:22.694Z,0.40
2019-02-23T17:19:55.773Z,0.00
2019-02-23T17:22:28.309Z,0.00
2019-02-23T17:25:01.113Z,0.00
2019-02-23T17:27:36.496Z,0.00
2019-02-23T17:30:09.901Z,0.00
2019-02-23T17:32:42.955Z,0.00
2019-02-23T17:35:15.814Z,0.00
2019-02-23T17:37:48.403Z,0.00
2019-02-23T17:40:21.206Z,0.00
2019-02-23T17:42:53.808Z,0.00
2019-02-23T17:45:26.692Z,0.00
2019-02-23T17:47:59.105Z,0.00
2019-02-23T17:50:32.545Z,0.00
2019-02-23T17:53:05.073Z,0.00
2019-02-23T17:55:37.446Z,0.00
2019-02-23T17:58:09.921Z,0.00
2019-02-23T18:00:42.301Z,0.00
2019-02-23T18:03:15.166Z,0.00
2019-02-23T18:05:48.021Z,0.00
2019-02-23T18:08:20.389Z,0.00
2019-02-23T18:10:53.774Z,0.00
2019-02-23T18:13:26.517Z,0.00
2019-02-23T18:15:59.123Z,0.00
2019-02-23T18:18:31.675Z,0.00
2019-02-23T18:21:04.464Z,0.00
2019-02-23T18:23:37.010Z,0.00
2019-02-23T18:26:09.398Z,0.00
2019-02-23T18:28:41.857Z,0.00
2019-02-23T18:31:14.441Z,0.00
2019-02-23T18:33:46.899Z,0.00
2019-02-23T18:36:19.418Z,0.00
2019-02-23T18:38:52.834Z,0.00
2019-02-23T18:41:25.525Z,0.00
2019-02-23T18:43:58.086Z,0.00
2019-02-23T18:46:30.685Z,0.00
2019-02-23T18:49:03.138Z,0.00
2019-02-23T18:51:36.186Z,0.00
2019-02-23T18:54:08.709Z,0.00
2019-02-23T18:56:43.007Z,0.00
2019-02-23T18:59:15.063Z,0.00
2019-02-23T19:01:47.849Z,0.00
2019-02-23T19:04:20.210Z,0.00
2019-02-23T19:06:53.069Z,0.00
2019-02-23T19:09:25.612Z,0.00
2019-02-23T19:11:58.129Z,0.00
2019-02-23T19:14:30.575Z,0.00
2019-02-23T19:17:03.051Z,0.00
2019-02-23T19:19:35.601Z,0.00
2019-02-23T19:22:08.139Z,0.00
2019-02-23T19:24:41.334Z,0.00
2019-02-23T19:27:13.802Z,0.00
2019-02-23T19:29:46.426Z,0.00
2019-02-23T19:32:19.313Z,0.00
2019-02-23T19:34:51.873Z,0.00
2019-02-23T19:37:24.431Z,0.00
2019-02-23T19:39:56.921Z,0.00
2019-02-23T19:42:29.408Z,2.80
2019-02-23T19:45:01.881Z,3.00
2019-02-23T19:47:35.921Z,5.40
2019-02-23T19:50:11.124Z,6.80
2019-02-23T19:52:45.043Z,10.80
2019-02-23T19:55:18.319Z,16.60
2019-02-23T19:57:50.736Z,19.40
2019-02-23T20:00:23.203Z,20.00
2019-02-23T20:02:55.791Z,27.60
2019-02-23T20:05:30.317Z,27.80
2019-02-23T20:08:02.835Z,30.80
2019-02-23T20:10:35.237Z,32.60
2019-02-23T20:13:07.570Z,32.20
2019-02-23T20:15:39.785Z,32.20
2019-02-23T20:18:13.016Z,27.20
2019-02-23T20:20:45.206Z,29.20
2019-02-23T20:23:18.159Z,27.80
2019-02-23T20:25:51.015Z,28.40
2019-02-23T20:28:23.610Z,30.40
2019-02-23T20:30:55.837Z,34.60
2019-02-23T20:33:28.199Z,37.80
2019-02-23T20:36:00.811Z,38.75
2019-02-23T20:38:33.697Z,47.00
2019-02-23T20:41:06.357Z,52.50
2019-02-23T20:43:38.735Z,88.25
2019-02-23T20:46:11.406Z,109.25
2019-02-23T20:48:44.112Z,130.75
2019-02-23T20:51:16.504Z,145.50
2019-02-23T20:53:49.284Z,155.50
2019-02-23T20:56:21.813Z,153.50
2019-02-23T20:58:54.130Z,158.75
2019-02-23T21:01:26.310Z,161.75
2019-02-23T21:03:58.775Z,151.00
2019-02-23T21:06:31.106Z,155.75
2019-02-23T21:09:03.684Z,155.00
2019-02-23T21:11:37.313Z,148.25
2019-02-23T21:14:09.968Z,140.75
2019-02-23T21:16:42.204Z,156.75
2019-02-23T21:19:14.839Z,147.00
2019-02-23T21:21:47.526Z,150.00
2019-02-23T21:24:19.758Z,147.25
2019-02-23T21:26:51.963Z,145.00
2019-02-23T21:29:24.188Z,138.50
2019-02-23T21:31:56.362Z,138.25
2019-02-23T21:34:28.694Z,139.00
2019-02-23T21:37:01.029Z,141.50
2019-02-23T21:39:33.734Z,135.75
2019-02-23T21:42:05.920Z,132.50
2019-02-23T21:44:38.326Z,124.25
2019-02-23T21:47:10.635Z,125.00
2019-02-23T21:49:42.894Z,126.75
2019-02-23T21:52:15.183Z,108.75
2019-02-23T21:54:48.399Z,116.00
2019-02-23T21:57:22.377Z,116.25
2019-02-23T21:59:55.906Z,115.25
2019-02-23T22:02:28.285Z,108.50
2019-02-23T22:05:01.030Z,113.75
2019-02-23T22:07:33.606Z,107.75
2019-02-23T22:10:09.836Z,108.00
2019-02-23T22:12:42.138Z,98.50
2019-02-23T22:15:15.950Z,102.00
2019-02-23T22:17:48.155Z,99.00
2019-02-23T22:20:20.376Z,99.25
2019-02-23T22:22:54.606Z,90.50
2019-02-23T22:25:26.777Z,92.75
2019-02-23T22:28:00.152Z,89.25
2019-02-23T22:30:32.735Z,82.75
2019-02-23T22:33:05.113Z,86.75
2019-02-23T22:35:37.330Z,82.75
2019-02-23T22:38:09.602Z,79.50
2019-02-23T22:40:41.796Z,77.75
2019-02-23T22:43:13.965Z,76.75
2019-02-23T22:45:46.346Z,75.25
2019-02-23T22:48:19.634Z,69.50
2019-02-23T22:50:52.460Z,80.00
2019-02-23T22:53:24.645Z,72.50
2019-02-23T22:55:57.212Z,69.00
2019-02-23T22:58:29.587Z,69.50
2019-02-23T23:01:05.747Z,70.75
2019-02-23T23:03:39.245Z,66.50
2019-02-23T23:06:11.823Z,66.50
2019-02-23T23:08:44.440Z,64.75
2019-02-23T23:11:16.840Z,58.75
2019-02-23T23:13:49.024Z,58.50
2019-02-23T23:16:21.496Z,62.00
2019-02-23T23:18:53.655Z,63.75
2019-02-23T23:21:26.339Z,55.00
2019-02-23T23:23:59.015Z,56.25
2019-02-23T23:26:31.349Z,52.25
2019-02-23T23:29:03.525Z,54.00
2019-02-23T23:31:35.829Z,53.50
2019-02-23T23:34:08.513Z,53.25
2019-02-23T23:36:40.773Z,53.50
2019-02-23T23:39:13.151Z,53.00
2019-02-23T23:41:45.462Z,51.25
2019-02-23T23:44:17.649Z,52.00
2019-02-23T23:46:50.032Z,51.25
2019-02-23T23:49:22.222Z,48.75
2019-02-23T23:51:54.507Z,49.00
2019-02-23T23:54:26.888Z,51.00
2019-02-23T23:56:59.497Z,48.50
2019-02-23T23:59:31.878Z,47.00
